Wetterdaten: Samstag, 09.01.2016
Datum Zeit Auen-Temp. Temp gefhlt Luftfeuchte Luftdruck Regen Wind Richtung Richtung Taupunkt Windben
09.01.2016 00:00 2,3 C 2,3 C 93 % 1005,1 hPa 0,0 mm 0,0 km/h (0 Bft) O 90 1,3 C 0,0 km/h (0 Bft)
09.01.2016 00:05 2,3 C 2,3 C 93 % 1005,1 hPa 0,0 mm 0,0 km/h (0 Bft) O 90 1,3 C 0,0 km/h (0 Bft)
09.01.2016 00:10 2,3 C 2,3 C 93 % 1005,1 hPa 0,7 mm 0,0 km/h (0 Bft) SO 135 1,3 C 0,0 km/h (0 Bft)
09.01.2016 00:15 2,3 C 2,3 C 93 % 1005,2 hPa 0,0 mm 0,0 km/h (0 Bft) O 90 1,3 C 0,0 km/h (0 Bft)
09.01.2016 00:20 2,4 C 2,4 C 93 % 1005,2 hPa 0,0 mm 0,0 km/h (0 Bft) O-NO 67 1,4 C 0,0 km/h (0 Bft)
09.01.2016 00:25 2,4 C 2,4 C 93 % 1005,2 hPa 0,0 mm 0,0 km/h (0 Bft) O-NO 67 1,4 C 0,0 km/h (0 Bft)
09.01.2016 00:30 2,4 C 2,4 C 93 % 1005,2 hPa 0,0 mm 0,0 km/h (0 Bft) O 90 1,4 C 0,0 km/h (0 Bft)
09.01.2016 00:35 2,4 C 2,3 C 93 % 1005,5 hPa 0,0 mm 0,0 km/h (0 Bft) O-SO 112 1,4 C 0,0 km/h (0 Bft)
09.01.2016 00:40 2,5 C 2,4 C 93 % 1005,5 hPa 0,0 mm 0,0 km/h (0 Bft) O 90 1,5 C 0,0 km/h (0 Bft)
09.01.2016 00:45 2,4 C 2,4 C 93 % 1005,5 hPa 0,7 mm 0,0 km/h (0 Bft) O-SO 112 1,4 C 0,0 km/h (0 Bft)
09.01.2016 00:50 2,6 C 2,5 C 93 % 1005,5 hPa 0,0 mm 0,0 km/h (0 Bft) O 90 1,6 C 0,0 km/h (0 Bft)
09.01.2016 00:55 2,5 C 2,5 C 93 % 1005,4 hPa 0,0 mm 0,3 km/h (0 Bft) SW 225 1,5 C 2,6 km/h (1 Bft)
09.01.2016 01:00 2,8 C 2,7 C 93 % 1005,4 hPa 0,0 mm 0,8 km/h (0 Bft) S-SO 157 1,8 C 0,0 km/h (0 Bft)
09.01.2016 01:05 2,8 C 2,8 C 88 % 1005,4 hPa 0,0 mm 0,8 km/h (0 Bft) S-SO 157 1,0 C 0,0 km/h (0 Bft)
09.01.2016 01:10 2,9 C 2,9 C 88 % 1005,4 hPa 0,0 mm 0,0 km/h (0 Bft) S-SO 157 1,1 C 0,0 km/h (0 Bft)
09.01.2016 01:15 3,0 C 2,9 C 92 % 1005,3 hPa 0,0 mm 0,0 km/h (0 Bft) SW 225 1,8 C 0,0 km/h (0 Bft)
09.01.2016 01:20 3,0 C 2,9 C 92 % 1005,3 hPa 0,0 mm 0,0 km/h (0 Bft) S-SO 157 1,8 C 0,0 km/h (0 Bft)
09.01.2016 01:25 3,0 C 2,9 C 92 % 1005,3 hPa 0,7 mm 0,0 km/h (0 Bft) S-SW 202 1,8 C 0,0 km/h (0 Bft)
09.01.2016 01:30 3,0 C 2,9 C 92 % 1005,3 hPa 0,0 mm 0,0 km/h (0 Bft) SO 135 1,8 C 0,0 km/h (0 Bft)
09.01.2016 01:35 3,0 C 2,9 C 92 % 1005,2 hPa 0,0 mm 0,0 km/h (0 Bft) SO 135 1,8 C 0,0 km/h (0 Bft)
09.01.2016 01:40 3,1 C 3,0 C 93 % 1005,2 hPa 0,0 mm 1,0 km/h (0 Bft) SW 225 2,1 C 6,7 km/h (2 Bft)
09.01.2016 01:45 3,1 C 3,1 C 93 % 1005,2 hPa 0,0 mm 1,6 km/h (1 Bft) W 270 2,1 C 0,0 km/h (0 Bft)
09.01.2016 01:50 3,1 C 3,1 C 93 % 1005,2 hPa 0,0 mm 1,8 km/h (1 Bft) SO 135 2,1 C 0,0 km/h (0 Bft)
09.01.2016 01:55 3,1 C 3,1 C 93 % 1005,2 hPa 0,0 mm 0,8 km/h (0 Bft) NW 315 2,1 C 0,0 km/h (0 Bft)
09.01.2016 02:00 3,1 C 3,1 C 93 % 1005,2 hPa 0,0 mm 0,0 km/h (0 Bft) O-NO 67 2,1 C 0,0 km/h (0 Bft)
09.01.2016 02:05 3,1 C 3,1 C 93 % 1005,2 hPa 0,0 mm 0,0 km/h (0 Bft) O-NO 67 2,1 C 0,0 km/h (0 Bft)
09.01.2016 02:10 3,0 C 3,0 C 93 % 1005,2 hPa 0,0 mm 0,5 km/h (0 Bft) O-SO 112 2,0 C 0,0 km/h (0 Bft)
09.01.2016 02:15 3,1 C 3,1 C 93 % 1005,0 hPa 0,0 mm 0,5 km/h (0 Bft) NW 315 2,1 C 0,0 km/h (0 Bft)
09.01.2016 02:20 3,1 C 3,1 C 93 % 1005,0 hPa 0,7 mm 0,0 km/h (0 Bft) NO 45 2,1 C 8,8 km/h (2 Bft)
09.01.2016 02:25 3,3 C 3,2 C 93 % 1005,0 hPa 0,0 mm 0,8 km/h (0 Bft) O 90 2,3 C 2,6 km/h (1 Bft)
09.01.2016 02:30 3,2 C 3,2 C 88 % 1005,0 hPa 0,0 mm 0,8 km/h (0 Bft) N-NW 337 1,4 C 0,0 km/h (0 Bft)
09.01.2016 02:35 3,3 C 3,2 C 93 % 1005,0 hPa 0,0 mm 0,3 km/h (0 Bft) W 270 2,3 C 0,0 km/h (0 Bft)
09.01.2016 02:40 3,3 C 3,3 C 88 % 1005,0 hPa 0,0 mm 0,3 km/h (0 Bft) O-SO 112 1,5 C 0,0 km/h (0 Bft)
09.01.2016 02:45 3,3 C 3,3 C 93 % 1005,0 hPa 0,0 mm 0,0 km/h (0 Bft) O 90 2,3 C 0,0 km/h (0 Bft)
09.01.2016 02:50 3,3 C 3,3 C 88 % 1005,0 hPa 0,0 mm 0,0 km/h (0 Bft) O-SO 112 1,5 C 0,0 km/h (0 Bft)
09.01.2016 02:55 3,3 C 3,3 C 89 % 1005,0 hPa 0,7 mm 0,3 km/h (0 Bft) O-NO 67 1,7 C 0,0 km/h (0 Bft)
09.01.2016 03:00 3,4 C 3,4 C 89 % 1005,0 hPa 0,0 mm 0,3 km/h (0 Bft) O-SO 112 1,8 C 0,0 km/h (0 Bft)
09.01.2016 03:01 3,4 C 3,4 C 89 % 1005,0 hPa 0,0 mm 0,3 km/h (0 Bft) O-SO 112 1,8 C 0,0 km/h (0 Bft)
09.01.2016 03:10 3,5 C 3,5 C 93 % 1005,0 hPa 0,0 mm 0,3 km/h (0 Bft) O-SO 112 2,5 C 0,0 km/h (0 Bft)
09.01.2016 03:20 3,6 C 3,6 C 89 % 1004,7 hPa 0,0 mm 0,5 km/h (0 Bft) NO 45 2,0 C 0,0 km/h (0 Bft)
09.01.2016 03:30 3,7 C 3,7 C 94 % 1004,7 hPa 0,0 mm 2,3 km/h (1 Bft) S 180 2,8 C 4,9 km/h (1 Bft)
09.01.2016 03:40 3,9 C 3,9 C 89 % 1004,8 hPa 0,0 mm 3,9 km/h (1 Bft) O-SO 112 2,3 C 6,5 km/h (2 Bft)
09.01.2016 03:45 4,0 C 4,0 C 94 % 1004,8 hPa 0,0 mm 1,3 km/h (1 Bft) W-SW 247 3,1 C 3,6 km/h (1 Bft)
09.01.2016 03:50 4,0 C 4,0 C 94 % 1004,8 hPa 0,0 mm 1,3 km/h (1 Bft) W-SW 247 3,1 C 3,6 km/h (1 Bft)
09.01.2016 03:53 4,0 C 4,0 C 94 % 1004,8 hPa 0,0 mm 1,3 km/h (1 Bft) W-SW 247 3,1 C 3,6 km/h (1 Bft)
09.01.2016 04:00 4,2 C 4,1 C 94 % 1004,5 hPa 0,0 mm 3,9 km/h (1 Bft) W-SW 247 3,3 C 5,7 km/h (1 Bft)
09.01.2016 04:10 4,5 C 4,4 C 94 % 1004,5 hPa 0,7 mm 5,2 km/h (1 Bft) SO 135 3,6 C 17,9 km/h (3 Bft)
09.01.2016 04:20 4,3 C 4,4 C 94 % 1004,2 hPa 0,0 mm 2,8 km/h (1 Bft) W 270 3,4 C 6,5 km/h (2 Bft)
09.01.2016 04:22 4,3 C 4,4 C 94 % 1004,2 hPa 0,0 mm 2,8 km/h (1 Bft) W 270 3,4 C 6,5 km/h (2 Bft)
09.01.2016 04:25 4,3 C 4,4 C 94 % 1004,2 hPa 0,0 mm 2,8 km/h (1 Bft) W 270 3,4 C 6,5 km/h (2 Bft)
09.01.2016 04:30 4,1 C 4,1 C 94 % 1004,2 hPa 0,0 mm 4,7 km/h (1 Bft) S-SO 157 3,2 C 7,3 km/h (2 Bft)
09.01.2016 04:35 4,2 C 4,1 C 94 % 1004,2 hPa 0,0 mm 4,1 km/h (1 Bft) W 270 3,3 C 3,4 km/h (1 Bft)
09.01.2016 04:40 4,2 C 4,2 C 94 % 1004,3 hPa 0,0 mm 2,8 km/h (1 Bft) O-SO 112 3,3 C 0,0 km/h (0 Bft)
09.01.2016 04:45 4,2 C 4,1 C 94 % 1004,3 hPa 0,0 mm 3,9 km/h (1 Bft) N 360 3,3 C 4,7 km/h (1 Bft)
09.01.2016 04:50 4,1 C 4,1 C 94 % 1004,3 hPa 0,0 mm 3,4 km/h (1 Bft) O-NO 67 3,2 C 0,0 km/h (0 Bft)
09.01.2016 04:55 4,1 C 4,1 C 94 % 1004,3 hPa 0,0 mm 3,1 km/h (1 Bft) W 270 3,2 C 7,3 km/h (2 Bft)
09.01.2016 05:00 4,2 C 4,1 C 94 % 1004,2 hPa 0,0 mm 0,8 km/h (0 Bft) O-SO 112 3,3 C 0,0 km/h (0 Bft)
09.01.2016 05:05 4,3 C 4,2 C 94 % 1004,2 hPa 0,0 mm 0,8 km/h (0 Bft) W-SW 247 3,4 C 7,8 km/h (2 Bft)
09.01.2016 05:10 4,2 C 4,1 C 94 % 1004,2 hPa 0,0 mm 1,0 km/h (0 Bft) SO 135 3,3 C 0,0 km/h (0 Bft)
09.01.2016 05:15 4,2 C 4,1 C 94 % 1004,2 hPa 0,0 mm 1,3 km/h (1 Bft) O 90 3,3 C 0,0 km/h (0 Bft)
09.01.2016 05:20 4,2 C 4,1 C 94 % 1004,3 hPa 0,0 mm 0,3 km/h (0 Bft) O-NO 67 3,3 C 0,0 km/h (0 Bft)
09.01.2016 05:25 4,2 C 4,1 C 94 % 1004,3 hPa 0,0 mm 1,3 km/h (1 Bft) W 270 3,3 C 3,6 km/h (1 Bft)
09.01.2016 05:30 4,3 C 4,2 C 94 % 1004,3 hPa 0,0 mm 1,8 km/h (1 Bft) O-NO 67 3,4 C 0,0 km/h (0 Bft)
09.01.2016 05:35 4,3 C 4,3 C 94 % 1004,3 hPa 0,0 mm 1,3 km/h (1 Bft) O-NO 67 3,4 C 0,0 km/h (0 Bft)
09.01.2016 05:40 4,5 C 4,4 C 94 % 1004,5 hPa 0,0 mm 3,4 km/h (1 Bft) SO 135 3,6 C 2,8 km/h (1 Bft)
09.01.2016 05:45 4,6 C 4,6 C 94 % 1004,5 hPa 0,0 mm 3,4 km/h (1 Bft) SO 135 3,7 C 0,0 km/h (0 Bft)
09.01.2016 05:50 4,6 C 4,6 C 94 % 1004,5 hPa 0,0 mm 1,0 km/h (0 Bft) O-SO 112 3,7 C 0,0 km/h (0 Bft)
09.01.2016 05:55 4,6 C 4,6 C 94 % 1004,5 hPa 0,0 mm 0,8 km/h (0 Bft) O 90 3,7 C 0,0 km/h (0 Bft)
09.01.2016 06:00 4,6 C 4,6 C 94 % 1004,7 hPa 0,0 mm 0,0 km/h (0 Bft) O-NO 67 3,7 C 0,0 km/h (0 Bft)
09.01.2016 06:05 4,5 C 4,6 C 94 % 1004,7 hPa 0,0 mm 0,0 km/h (0 Bft) O 90 3,6 C 0,0 km/h (0 Bft)
09.01.2016 06:10 4,4 C 4,5 C 94 % 1004,7 hPa 0,0 mm 0,0 km/h (0 Bft) SO 135 3,5 C 0,0 km/h (0 Bft)
09.01.2016 06:15 4,4 C 4,4 C 94 % 1004,7 hPa 0,0 mm 0,0 km/h (0 Bft) O-SO 112 3,5 C 0,0 km/h (0 Bft)
09.01.2016 06:20 4,3 C 4,3 C 94 % 1005,0 hPa 0,0 mm 0,0 km/h (0 Bft) SO 135 3,4 C 0,0 km/h (0 Bft)
09.01.2016 06:25 4,2 C 4,2 C 94 % 1005,0 hPa 0,0 mm 0,0 km/h (0 Bft) N-NW 337 3,3 C 0,0 km/h (0 Bft)
09.01.2016 06:30 4,0 C 4,0 C 94 % 1005,0 hPa 0,0 mm 0,0 km/h (0 Bft) O 90 3,1 C 0,0 km/h (0 Bft)
09.01.2016 06:35 3,8 C 3,9 C 94 % 1005,0 hPa 0,0 mm 0,0 km/h (0 Bft) N 360 2,9 C 0,0 km/h (0 Bft)
09.01.2016 06:40 3,7 C 3,7 C 94 % 1005,0 hPa 0,0 mm 0,0 km/h (0 Bft) NW 315 2,8 C 0,0 km/h (0 Bft)
09.01.2016 06:45 3,7 C 3,7 C 94 % 1005,0 hPa 0,0 mm 0,0 km/h (0 Bft) O 90 2,8 C 0,0 km/h (0 Bft)
09.01.2016 06:50 3,7 C 3,7 C 94 % 1005,0 hPa 0,0 mm 0,0 km/h (0 Bft) N-NO 22 2,8 C 0,0 km/h (0 Bft)
09.01.2016 06:55 3,6 C 3,6 C 94 % 1005,0 hPa 0,0 mm 0,3 km/h (0 Bft) W 270 2,7 C 3,6 km/h (1 Bft)
09.01.2016 07:00 3,6 C 3,6 C 94 % 1005,0 hPa 0,0 mm 0,5 km/h (0 Bft) W 270 2,7 C 3,1 km/h (1 Bft)
09.01.2016 07:05 3,7 C 3,6 C 94 % 1005,0 hPa 0,0 mm 0,3 km/h (0 Bft) O-SO 112 2,8 C 0,0 km/h (0 Bft)
09.01.2016 07:10 3,6 C 3,6 C 94 % 1005,0 hPa 0,0 mm 0,3 km/h (0 Bft) N-NW 337 2,7 C 0,0 km/h (0 Bft)
09.01.2016 07:15 3,7 C 3,6 C 94 % 1005,0 hPa 0,0 mm 0,0 km/h (0 Bft) O-SO 112 2,8 C 0,0 km/h (0 Bft)
09.01.2016 07:20 3,7 C 3,7 C 94 % 1005,0 hPa 0,0 mm 0,0 km/h (0 Bft) W 270 2,8 C 0,0 km/h (0 Bft)
09.01.2016 07:25 3,7 C 3,7 C 94 % 1005,0 hPa 0,7 mm 0,0 km/h (0 Bft) NO 45 2,8 C 0,0 km/h (0 Bft)
09.01.2016 07:30 3,7 C 3,7 C 94 % 1005,0 hPa 0,0 mm 0,0 km/h (0 Bft) O 90 2,8 C 0,0 km/h (0 Bft)
09.01.2016 07:35 3,7 C 3,7 C 94 % 1005,0 hPa 0,0 mm 0,0 km/h (0 Bft) O-SO 112 2,8 C 0,0 km/h (0 Bft)
09.01.2016 07:40 3,5 C 3,6 C 94 % 1005,0 hPa 0,0 mm 0,0 km/h (0 Bft) N-NO 22 2,6 C 0,0 km/h (0 Bft)
09.01.2016 07:45 3,6 C 3,6 C 94 % 1005,0 hPa 0,0 mm 0,0 km/h (0 Bft) O-NO 67 2,7 C 0,0 km/h (0 Bft)
09.01.2016 07:50 3,6 C 3,6 C 94 % 1005,0 hPa 0,0 mm 0,0 km/h (0 Bft) O-NO 67 2,7 C 0,0 km/h (0 Bft)
09.01.2016 07:55 3,7 C 3,7 C 94 % 1005,0 hPa 0,0 mm 0,0 km/h (0 Bft) O-NO 67 2,8 C 0,0 km/h (0 Bft)
09.01.2016 08:00 3,6 C 3,6 C 94 % 1005,0 hPa 0,0 mm 0,0 km/h (0 Bft) N-NO 22 2,7 C 0,0 km/h (0 Bft)
09.01.2016 08:05 3,5 C 3,6 C 94 % 1005,0 hPa 0,0 mm 0,0 km/h (0 Bft) W-SW 247 2,6 C 0,0 km/h (0 Bft)
09.01.2016 08:10 3,6 C 3,6 C 94 % 1005,0 hPa 0,0 mm 0,0 km/h (0 Bft) W 270 2,7 C 0,0 km/h (0 Bft)
09.01.2016 08:15 3,6 C 3,6 C 94 % 1005,0 hPa 0,0 mm 0,0 km/h (0 Bft) SO 135 2,7 C 0,0 km/h (0 Bft)
09.01.2016 08:20 3,6 C 3,7 C 94 % 1005,0 hPa 0,0 mm 0,0 km/h (0 Bft) SO 135 2,7 C 0,0 km/h (0 Bft)
09.01.2016 08:25 3,6 C 3,7 C 94 % 1005,0 hPa 0,0 mm 0,3 km/h (0 Bft) W-SW 247 2,7 C 0,0 km/h (0 Bft)
09.01.2016 08:30 3,6 C 3,7 C 94 % 1005,0 hPa 0,0 mm 0,3 km/h (0 Bft) S 180 2,7 C 0,0 km/h (0 Bft)
09.01.2016 08:35 3,6 C 3,7 C 94 % 1005,0 hPa 0,7 mm 0,3 km/h (0 Bft) S 180 2,7 C 0,0 km/h (0 Bft)
09.01.2016 08:40 3,6 C 3,7 C 94 % 1005,2 hPa 0,0 mm 0,0 km/h (0 Bft) S 180 2,7 C 0,0 km/h (0 Bft)
09.01.2016 08:45 3,7 C 3,7 C 94 % 1005,2 hPa 0,0 mm 0,0 km/h (0 Bft) S 180 2,8 C 0,0 km/h (0 Bft)
09.01.2016 08:50 3,8 C 3,9 C 89 % 1005,2 hPa 0,0 mm 0,0 km/h (0 Bft) S 180 2,2 C 0,0 km/h (0 Bft)
09.01.2016 08:55 3,9 C 4,1 C 89 % 1005,2 hPa 0,0 mm 0,0 km/h (0 Bft) O-SO 112 2,3 C 0,0 km/h (0 Bft)
09.01.2016 09:00 4,0 C 4,2 C 89 % 1005,3 hPa 0,0 mm 0,0 km/h (0 Bft) O-NO 67 2,4 C 0,0 km/h (0 Bft)
09.01.2016 09:05 4,1 C 4,4 C 89 % 1005,3 hPa 0,0 mm 0,0 km/h (0 Bft) O-NO 67 2,5 C 0,0 km/h (0 Bft)
09.01.2016 09:10 4,2 C 4,5 C 89 % 1005,3 hPa 0,0 mm 0,0 km/h (0 Bft) O-NO 67 2,6 C 0,0 km/h (0 Bft)
09.01.2016 09:15 4,2 C 4,5 C 89 % 1005,3 hPa 0,0 mm 0,0 km/h (0 Bft) O-SO 112 2,6 C 0,0 km/h (0 Bft)
09.01.2016 09:20 4,3 C 4,6 C 94 % 1005,1 hPa 0,0 mm 0,0 km/h (0 Bft) NO 45 3,4 C 0,0 km/h (0 Bft)
09.01.2016 09:25 4,4 C 4,6 C 94 % 1005,1 hPa 0,0 mm 0,0 km/h (0 Bft) W 270 3,5 C 0,0 km/h (0 Bft)
09.01.2016 09:30 4,4 C 4,6 C 94 % 1005,1 hPa 0,0 mm 0,0 km/h (0 Bft) O-SO 112 3,5 C 0,0 km/h (0 Bft)
09.01.2016 09:35 4,4 C 4,6 C 94 % 1005,1 hPa 0,0 mm 0,0 km/h (0 Bft) O-SO 112 3,5 C 0,0 km/h (0 Bft)
09.01.2016 09:40 4,4 C 4,6 C 94 % 1005,3 hPa 0,0 mm 0,0 km/h (0 Bft) O-SO 112 3,5 C 0,0 km/h (0 Bft)
09.01.2016 09:45 4,5 C 4,6 C 94 % 1005,3 hPa 0,0 mm 0,0 km/h (0 Bft) O 90 3,6 C 0,0 km/h (0 Bft)
09.01.2016 09:46 4,5 C 4,7 C 94 % 1005,3 hPa 0,0 mm 0,0 km/h (0 Bft) O 90 3,6 C 0,0 km/h (0 Bft)
09.01.2016 09:51 4,5 C 4,7 C 94 % 1005,3 hPa 0,0 mm 0,0 km/h (0 Bft) O 90 3,6 C 0,0 km/h (0 Bft)
09.01.2016 09:55 4,6 C 4,8 C 95 % 1005,3 hPa 0,0 mm 0,0 km/h (0 Bft) O-SO 112 3,9 C 0,0 km/h (0 Bft)
09.01.2016 10:00 4,6 C 5,0 C 89 % 1005,2 hPa 0,0 mm 0,0 km/h (0 Bft) SO 135 2,9 C 0,0 km/h (0 Bft)
09.01.2016 10:05 4,7 C 5,1 C 89 % 1005,2 hPa 0,0 mm 0,0 km/h (0 Bft) O 90 3,0 C 0,0 km/h (0 Bft)
09.01.2016 10:10 4,8 C 5,2 C 95 % 1005,2 hPa 0,0 mm 0,0 km/h (0 Bft) W 270 4,1 C 0,0 km/h (0 Bft)
09.01.2016 10:15 4,8 C 5,2 C 95 % 1005,2 hPa 0,0 mm 0,3 km/h (0 Bft) O-NO 67 4,1 C 0,0 km/h (0 Bft)
09.01.2016 10:20 4,8 C 5,1 C 95 % 1005,2 hPa 0,7 mm 0,3 km/h (0 Bft) SO 135 4,1 C 0,0 km/h (0 Bft)
09.01.2016 10:25 4,8 C 5,2 C 89 % 1005,2 hPa 0,0 mm 0,3 km/h (0 Bft) SO 135 3,1 C 0,0 km/h (0 Bft)
09.01.2016 10:30 4,8 C 5,2 C 89 % 1005,2 hPa 0,0 mm 0,0 km/h (0 Bft) O-NO 67 3,1 C 0,0 km/h (0 Bft)
09.01.2016 10:35 4,9 C 5,2 C 95 % 1005,2 hPa 0,0 mm 1,3 km/h (1 Bft) O-SO 112 4,2 C 0,0 km/h (0 Bft)
09.01.2016 10:40 4,9 C 5,1 C 95 % 1005,1 hPa 0,0 mm 1,3 km/h (1 Bft) O 90 4,2 C 0,0 km/h (0 Bft)
09.01.2016 10:45 4,9 C 5,1 C 95 % 1005,1 hPa 0,0 mm 0,5 km/h (0 Bft) SO 135 4,2 C 0,0 km/h (0 Bft)
09.01.2016 10:50 4,8 C 5,1 C 95 % 1005,1 hPa 0,0 mm 0,5 km/h (0 Bft) O 90 4,1 C 0,0 km/h (0 Bft)
09.01.2016 10:55 4,9 C 5,0 C 95 % 1005,1 hPa 0,0 mm 0,5 km/h (0 Bft) O-SO 112 4,2 C 0,0 km/h (0 Bft)
09.01.2016 11:00 4,9 C 5,1 C 95 % 1005,2 hPa 0,0 mm 0,0 km/h (0 Bft) O 90 4,2 C 0,0 km/h (0 Bft)
09.01.2016 11:05 4,9 C 5,2 C 95 % 1005,2 hPa 0,0 mm 0,0 km/h (0 Bft) O-SO 112 4,2 C 0,0 km/h (0 Bft)
09.01.2016 11:10 4,9 C 5,2 C 89 % 1005,2 hPa 0,0 mm 0,0 km/h (0 Bft) O-SO 112 3,2 C 0,0 km/h (0 Bft)
09.01.2016 11:15 5,0 C 5,3 C 89 % 1005,2 hPa 0,0 mm 0,0 km/h (0 Bft) O-NO 67 3,3 C 0,0 km/h (0 Bft)
09.01.2016 11:20 5,0 C 5,5 C 89 % 1005,1 hPa 0,0 mm 0,0 km/h (0 Bft) O-SO 112 3,3 C 0,0 km/h (0 Bft)
09.01.2016 11:25 5,1 C 5,5 C 89 % 1005,1 hPa 0,0 mm 0,0 km/h (0 Bft) SO 135 3,4 C 0,0 km/h (0 Bft)
09.01.2016 11:30 5,1 C 5,7 C 89 % 1005,1 hPa 0,0 mm 0,0 km/h (0 Bft) O-SO 112 3,4 C 0,0 km/h (0 Bft)
09.01.2016 11:35 5,2 C 5,8 C 89 % 1005,1 hPa 0,0 mm 0,0 km/h (0 Bft) O 90 3,5 C 0,0 km/h (0 Bft)
09.01.2016 11:40 5,3 C 5,8 C 94 % 1004,7 hPa 0,0 mm 0,0 km/h (0 Bft) O-NO 67 4,4 C 0,0 km/h (0 Bft)
09.01.2016 11:45 5,3 C 5,8 C 89 % 1004,7 hPa 0,0 mm 0,0 km/h (0 Bft) NO 45 3,6 C 0,0 km/h (0 Bft)
09.01.2016 11:50 5,3 C 5,8 C 89 % 1004,7 hPa 0,0 mm 0,0 km/h (0 Bft) O-SO 112 3,6 C 0,0 km/h (0 Bft)
09.01.2016 11:55 5,3 C 5,8 C 89 % 1004,7 hPa 0,7 mm 0,0 km/h (0 Bft) O 90 3,6 C 0,0 km/h (0 Bft)
09.01.2016 12:00 5,4 C 5,8 C 89 % 1004,5 hPa 0,0 mm 0,3 km/h (0 Bft) S-SO 157 3,7 C 0,0 km/h (0 Bft)
09.01.2016 12:05 5,4 C 5,8 C 89 % 1004,5 hPa 0,0 mm 0,3 km/h (0 Bft) O-SO 112 3,7 C 0,0 km/h (0 Bft)
09.01.2016 12:10 5,4 C 5,8 C 89 % 1004,5 hPa 0,0 mm 0,3 km/h (0 Bft) SO 135 3,7 C 0,0 km/h (0 Bft)
09.01.2016 12:15 5,4 C 5,7 C 94 % 1004,5 hPa 0,0 mm 0,0 km/h (0 Bft) O-SO 112 4,5 C 0,0 km/h (0 Bft)
09.01.2016 12:20 5,4 C 5,5 C 94 % 1004,5 hPa 0,0 mm 0,8 km/h (0 Bft) O-NO 67 4,5 C 0,0 km/h (0 Bft)
09.01.2016 12:25 5,4 C 5,5 C 94 % 1004,5 hPa 0,0 mm 0,5 km/h (0 Bft) W-NW 292 4,5 C 3,1 km/h (1 Bft)
09.01.2016 12:30 5,4 C 5,5 C 89 % 1004,5 hPa 0,0 mm 1,0 km/h (0 Bft) W 270 3,7 C 0,0 km/h (0 Bft)
09.01.2016 12:35 5,5 C 5,5 C 94 % 1004,5 hPa 0,0 mm 1,0 km/h (0 Bft) W-NW 292 4,6 C 0,0 km/h (0 Bft)
09.01.2016 12:40 5,5 C 5,6 C 94 % 1004,5 hPa 0,0 mm 0,0 km/h (0 Bft) W-NW 292 4,6 C 0,0 km/h (0 Bft)
09.01.2016 12:45 5,5 C 5,6 C 94 % 1004,5 hPa 0,0 mm 0,3 km/h (0 Bft) W 270 4,6 C 0,0 km/h (0 Bft)
09.01.2016 12:50 5,5 C 5,6 C 89 % 1004,5 hPa 0,7 mm 1,3 km/h (1 Bft) NW 315 3,8 C 6,5 km/h (2 Bft)
09.01.2016 12:55 5,6 C 5,7 C 94 % 1004,5 hPa 0,0 mm 1,6 km/h (1 Bft) W-SW 247 4,7 C 0,0 km/h (0 Bft)
09.01.2016 13:00 5,6 C 5,8 C 89 % 1004,7 hPa 0,0 mm 0,8 km/h (0 Bft) W 270 3,9 C 0,0 km/h (0 Bft)
09.01.2016 13:05 5,7 C 5,8 C 94 % 1004,7 hPa 0,0 mm 1,0 km/h (0 Bft) W 270 4,8 C 5,4 km/h (1 Bft)
09.01.2016 13:10 5,7 C 5,8 C 94 % 1004,7 hPa 0,0 mm 2,3 km/h (1 Bft) W 270 4,8 C 9,1 km/h (2 Bft)
09.01.2016 13:15 5,7 C 5,8 C 94 % 1004,7 hPa 0,0 mm 3,1 km/h (1 Bft) NW 315 4,8 C 3,9 km/h (1 Bft)
09.01.2016 13:20 5,6 C 5,8 C 89 % 1004,4 hPa 0,0 mm 2,3 km/h (1 Bft) W 270 3,9 C 0,0 km/h (0 Bft)
09.01.2016 13:25 5,6 C 5,8 C 89 % 1004,4 hPa 0,0 mm 2,3 km/h (1 Bft) W-NW 292 3,9 C 4,1 km/h (1 Bft)
09.01.2016 13:30 5,6 C 5,7 C 94 % 1004,4 hPa 0,7 mm 2,1 km/h (1 Bft) W-SW 247 4,7 C 5,4 km/h (1 Bft)
09.01.2016 13:35 5,6 C 5,7 C 94 % 1004,4 hPa 0,0 mm 1,0 km/h (0 Bft) W-SW 247 4,7 C 0,0 km/h (0 Bft)
09.01.2016 13:40 5,6 C 5,6 C 94 % 1004,7 hPa 0,0 mm 1,3 km/h (1 Bft) W-SW 247 4,7 C 0,0 km/h (0 Bft)
09.01.2016 13:45 5,5 C 5,6 C 89 % 1004,7 hPa 0,0 mm 2,3 km/h (1 Bft) W-SW 247 3,8 C 4,4 km/h (1 Bft)
09.01.2016 13:50 5,5 C 5,5 C 94 % 1004,7 hPa 0,0 mm 3,6 km/h (1 Bft) SW 225 4,6 C 10,4 km/h (2 Bft)
09.01.2016 13:55 5,6 C 5,5 C 94 % 1004,7 hPa 0,0 mm 5,7 km/h (1 Bft) S-SW 202 4,7 C 9,6 km/h (2 Bft)
09.01.2016 14:00 5,6 C 5,5 C 94 % 1004,7 hPa 0,0 mm 6,0 km/h (2 Bft) W-SW 247 4,7 C 7,3 km/h (2 Bft)
09.01.2016 14:05 5,6 C 5,6 C 94 % 1004,7 hPa 0,0 mm 4,9 km/h (1 Bft) W-SW 247 4,7 C 7,0 km/h (2 Bft)
09.01.2016 14:10 5,6 C 5,5 C 94 % 1004,7 hPa 0,0 mm 5,7 km/h (1 Bft) W 270 4,7 C 8,8 km/h (2 Bft)
09.01.2016 14:15 5,6 C 5,6 C 94 % 1004,7 hPa 0,0 mm 3,9 km/h (1 Bft) W 270 4,7 C 0,0 km/h (0 Bft)
09.01.2016 14:20 5,6 C 5,6 C 94 % 1004,8 hPa 0,0 mm 1,3 km/h (1 Bft) N-NW 337 4,7 C 0,0 km/h (0 Bft)
09.01.2016 14:25 5,6 C 5,6 C 94 % 1004,8 hPa 0,0 mm 0,5 km/h (0 Bft) W 270 4,7 C 0,0 km/h (0 Bft)
09.01.2016 14:30 5,6 C 5,6 C 94 % 1004,8 hPa 0,0 mm 0,5 km/h (0 Bft) W-NW 292 4,7 C 0,0 km/h (0 Bft)
09.01.2016 14:35 5,6 C 5,6 C 94 % 1004,8 hPa 0,0 mm 0,3 km/h (0 Bft) S-SO 157 4,7 C 0,0 km/h (0 Bft)
09.01.2016 14:40 5,5 C 5,6 C 94 % 1004,9 hPa 0,0 mm 0,0 km/h (0 Bft) NW 315 4,6 C 0,0 km/h (0 Bft)
09.01.2016 14:45 5,5 C 5,6 C 94 % 1004,9 hPa 0,7 mm 0,0 km/h (0 Bft) SO 135 4,6 C 0,0 km/h (0 Bft)
09.01.2016 14:50 5,5 C 5,6 C 94 % 1004,9 hPa 0,0 mm 0,0 km/h (0 Bft) S-SO 157 4,6 C 0,0 km/h (0 Bft)
09.01.2016 14:55 5,5 C 5,5 C 94 % 1004,9 hPa 0,0 mm 0,0 km/h (0 Bft) SO 135 4,6 C 0,0 km/h (0 Bft)
09.01.2016 15:00 5,4 C 5,5 C 94 % 1004,8 hPa 0,0 mm 0,0 km/h (0 Bft) W 270 4,5 C 0,0 km/h (0 Bft)
09.01.2016 15:05 5,4 C 5,5 C 94 % 1004,8 hPa 0,0 mm 0,0 km/h (0 Bft) SO 135 4,5 C 0,0 km/h (0 Bft)
09.01.2016 15:10 5,4 C 5,5 C 94 % 1004,8 hPa 0,0 mm 0,0 km/h (0 Bft) O-SO 112 4,5 C 0,0 km/h (0 Bft)
09.01.2016 15:15 5,4 C 5,5 C 94 % 1004,8 hPa 0,0 mm 0,0 km/h (0 Bft) O-SO 112 4,5 C 0,0 km/h (0 Bft)
09.01.2016 15:20 5,4 C 5,5 C 94 % 1004,6 hPa 0,0 mm 0,0 km/h (0 Bft) O-NO 67 4,5 C 0,0 km/h (0 Bft)
09.01.2016 15:25 5,4 C 5,5 C 94 % 1004,6 hPa 0,0 mm 0,0 km/h (0 Bft) O-SO 112 4,5 C 0,0 km/h (0 Bft)
09.01.2016 15:30 5,3 C 5,4 C 94 % 1004,6 hPa 0,0 mm 0,0 km/h (0 Bft) NO 45 4,4 C 0,0 km/h (0 Bft)
09.01.2016 15:35 5,3 C 5,3 C 94 % 1004,6 hPa 0,0 mm 0,0 km/h (0 Bft) SO 135 4,4 C 0,0 km/h (0 Bft)
09.01.2016 15:40 5,2 C 5,2 C 94 % 1004,8 hPa 0,0 mm 0,0 km/h (0 Bft) O-SO 112 4,3 C 0,0 km/h (0 Bft)
09.01.2016 15:45 5,2 C 5,2 C 94 % 1004,8 hPa 0,0 mm 0,0 km/h (0 Bft) O-NO 67 4,3 C 0,0 km/h (0 Bft)
09.01.2016 15:50 5,2 C 5,2 C 94 % 1004,8 hPa 0,0 mm 0,0 km/h (0 Bft) SO 135 4,3 C 0,0 km/h (0 Bft)
09.01.2016 15:52 5,1 C 5,2 C 94 % 1004,8 hPa 0,0 mm 0,0 km/h (0 Bft) O-SO 112 4,2 C 0,0 km/h (0 Bft)
09.01.2016 15:55 5,1 C 5,2 C 94 % 1004,8 hPa 0,0 mm 0,0 km/h (0 Bft) O-SO 112 4,2 C 0,0 km/h (0 Bft)
09.01.2016 16:00 5,1 C 5,1 C 94 % 1004,7 hPa 0,0 mm 0,0 km/h (0 Bft) O-SO 112 4,2 C 0,0 km/h (0 Bft)
09.01.2016 16:05 5,1 C 5,1 C 94 % 1004,7 hPa 0,0 mm 0,0 km/h (0 Bft) O-SO 112 4,2 C 0,0 km/h (0 Bft)
09.01.2016 16:10 5,1 C 5,1 C 94 % 1004,7 hPa 0,0 mm 0,0 km/h (0 Bft) O-SO 112 4,2 C 0,0 km/h (0 Bft)
09.01.2016 16:15 5,1 C 5,1 C 94 % 1004,7 hPa 0,0 mm 0,0 km/h (0 Bft) O-NO 67 4,2 C 0,0 km/h (0 Bft)
09.01.2016 16:20 5,0 C 5,0 C 94 % 1004,6 hPa 0,0 mm 0,0 km/h (0 Bft) O-SO 112 4,1 C 0,0 km/h (0 Bft)
09.01.2016 16:25 4,9 C 4,9 C 94 % 1004,6 hPa 0,0 mm 0,0 km/h (0 Bft) O-NO 67 4,0 C 0,0 km/h (0 Bft)
09.01.2016 16:30 4,9 C 4,9 C 94 % 1004,6 hPa 0,0 mm 0,0 km/h (0 Bft) O-SO 112 4,0 C 0,0 km/h (0 Bft)
09.01.2016 16:35 4,8 C 4,8 C 94 % 1004,6 hPa 0,0 mm 0,0 km/h (0 Bft) O-NO 67 3,9 C 0,0 km/h (0 Bft)
09.01.2016 16:40 4,8 C 4,8 C 94 % 1004,5 hPa 0,0 mm 0,0 km/h (0 Bft) O-NO 67 3,9 C 0,0 km/h (0 Bft)
09.01.2016 16:45 4,7 C 4,7 C 94 % 1004,5 hPa 0,0 mm 0,0 km/h (0 Bft) O-SO 112 3,8 C 0,0 km/h (0 Bft)
09.01.2016 16:50 4,7 C 4,7 C 94 % 1004,5 hPa 0,0 mm 0,0 km/h (0 Bft) NO 45 3,8 C 0,0 km/h (0 Bft)
09.01.2016 16:55 4,7 C 4,7 C 94 % 1004,5 hPa 0,0 mm 0,0 km/h (0 Bft) O-SO 112 3,8 C 0,0 km/h (0 Bft)
09.01.2016 17:00 4,7 C 4,7 C 94 % 1004,7 hPa 0,0 mm 0,0 km/h (0 Bft) O 90 3,8 C 0,0 km/h (0 Bft)
09.01.2016 17:05 4,6 C 4,6 C 94 % 1004,7 hPa 0,0 mm 0,0 km/h (0 Bft) SO 135 3,7 C 0,0 km/h (0 Bft)
09.01.2016 17:10 4,6 C 4,6 C 94 % 1004,7 hPa 0,0 mm 0,0 km/h (0 Bft) O-SO 112 3,7 C 0,0 km/h (0 Bft)
09.01.2016 17:15 4,5 C 4,5 C 94 % 1004,7 hPa 0,0 mm 0,0 km/h (0 Bft) O-SO 112 3,6 C 0,0 km/h (0 Bft)
09.01.2016 17:20 4,4 C 4,4 C 94 % 1004,7 hPa 0,0 mm 0,0 km/h (0 Bft) O-SO 112 3,5 C 0,0 km/h (0 Bft)
09.01.2016 17:25 4,6 C 4,5 C 94 % 1004,7 hPa 0,0 mm 0,0 km/h (0 Bft) O 90 3,7 C 0,0 km/h (0 Bft)
09.01.2016 17:30 4,3 C 4,4 C 94 % 1004,7 hPa 0,0 mm 0,0 km/h (0 Bft) O-SO 112 3,4 C 0,0 km/h (0 Bft)
09.01.2016 17:35 4,3 C 4,4 C 94 % 1004,7 hPa 0,0 mm 0,0 km/h (0 Bft) O 90 3,4 C 0,0 km/h (0 Bft)
09.01.2016 17:40 4,5 C 4,4 C 94 % 1004,5 hPa 0,0 mm 0,0 km/h (0 Bft) SO 135 3,6 C 0,0 km/h (0 Bft)
09.01.2016 17:45 4,4 C 4,4 C 94 % 1004,5 hPa 0,0 mm 0,0 km/h (0 Bft) O 90 3,5 C 0,0 km/h (0 Bft)
09.01.2016 17:50 4,5 C 4,4 C 94 % 1004,5 hPa 0,0 mm 0,0 km/h (0 Bft) O-SO 112 3,6 C 0,0 km/h (0 Bft)
09.01.2016 17:55 4,5 C 4,4 C 94 % 1004,5 hPa 0,0 mm 0,0 km/h (0 Bft) O-SO 112 3,6 C 0,0 km/h (0 Bft)
09.01.2016 18:00 4,3 C 4,3 C 94 % 1004,3 hPa 0,0 mm 0,0 km/h (0 Bft) O 90 3,4 C 0,0 km/h (0 Bft)
09.01.2016 18:05 4,2 C 4,2 C 94 % 1004,3 hPa 0,0 mm 0,0 km/h (0 Bft) O-NO 67 3,3 C 0,0 km/h (0 Bft)
09.01.2016 18:10 4,1 C 4,2 C 94 % 1004,3 hPa 0,0 mm 0,0 km/h (0 Bft) NO 45 3,2 C 0,0 km/h (0 Bft)
09.01.2016 18:15 4,3 C 4,3 C 94 % 1004,3 hPa 0,0 mm 0,0 km/h (0 Bft) O-SO 112 3,4 C 0,0 km/h (0 Bft)
09.01.2016 18:20 4,2 C 4,2 C 94 % 1004,0 hPa 0,0 mm 0,0 km/h (0 Bft) W 270 3,3 C 2,8 km/h (1 Bft)
09.01.2016 18:25 4,2 C 4,2 C 94 % 1004,0 hPa 0,0 mm 0,8 km/h (0 Bft) NW 315 3,3 C 3,6 km/h (1 Bft)
09.01.2016 18:30 4,4 C 4,3 C 94 % 1004,0 hPa 0,0 mm 1,0 km/h (0 Bft) O-SO 112 3,5 C 0,0 km/h (0 Bft)
09.01.2016 18:35 4,3 C 4,3 C 94 % 1004,0 hPa 0,0 mm 0,8 km/h (0 Bft) O-SO 112 3,4 C 0,0 km/h (0 Bft)
09.01.2016 18:40 4,4 C 4,3 C 94 % 1004,0 hPa 0,0 mm 0,0 km/h (0 Bft) O 90 3,5 C 0,0 km/h (0 Bft)
09.01.2016 18:45 4,3 C 4,3 C 94 % 1004,0 hPa 0,0 mm 0,0 km/h (0 Bft) O 90 3,4 C 0,0 km/h (0 Bft)
09.01.2016 18:50 4,4 C 4,3 C 94 % 1004,0 hPa 0,0 mm 0,0 km/h (0 Bft) O 90 3,5 C 0,0 km/h (0 Bft)
09.01.2016 18:55 4,4 C 4,3 C 94 % 1004,0 hPa 0,0 mm 0,0 km/h (0 Bft) O-SO 112 3,5 C 0,0 km/h (0 Bft)
09.01.2016 19:00 4,2 C 4,2 C 94 % 1004,2 hPa 0,0 mm 0,0 km/h (0 Bft) O-SO 112 3,3 C 0,0 km/h (0 Bft)
09.01.2016 19:05 4,3 C 4,3 C 94 % 1004,2 hPa 0,0 mm 0,5 km/h (0 Bft) S 180 3,4 C 6,0 km/h (2 Bft)
09.01.2016 19:10 4,2 C 4,2 C 94 % 1004,2 hPa 0,0 mm 0,5 km/h (0 Bft) W 270 3,3 C 3,1 km/h (1 Bft)
09.01.2016 19:15 4,1 C 4,1 C 94 % 1004,2 hPa 0,0 mm 0,8 km/h (0 Bft) W-NW 292 3,2 C 0,0 km/h (0 Bft)
09.01.2016 19:20 4,1 C 4,1 C 94 % 1004,5 hPa 0,0 mm 1,0 km/h (0 Bft) W-SW 247 3,2 C 4,7 km/h (1 Bft)
09.01.2016 19:25 4,3 C 4,2 C 94 % 1004,5 hPa 0,0 mm 3,4 km/h (1 Bft) SW 225 3,4 C 13,7 km/h (3 Bft)
09.01.2016 19:30 4,4 C 4,2 C 95 % 1004,5 hPa 0,0 mm 6,2 km/h (2 Bft) O-SO 112 3,7 C 0,0 km/h (0 Bft)
09.01.2016 19:35 4,3 C 4,3 C 95 % 1004,5 hPa 0,0 mm 4,4 km/h (1 Bft) S-SO 157 3,6 C 0,0 km/h (0 Bft)
09.01.2016 19:40 4,4 C 4,3 C 95 % 1004,5 hPa 0,0 mm 0,5 km/h (0 Bft) S-SO 157 3,7 C 3,6 km/h (1 Bft)
09.01.2016 19:45 4,4 C 4,3 C 95 % 1004,5 hPa 0,0 mm 0,3 km/h (0 Bft) O-SO 112 3,7 C 0,0 km/h (0 Bft)
09.01.2016 19:50 4,3 C 4,2 C 95 % 1004,5 hPa 0,0 mm 0,3 km/h (0 Bft) S 180 3,6 C 0,0 km/h (0 Bft)
09.01.2016 19:55 4,2 C 4,1 C 95 % 1004,5 hPa 0,0 mm 0,0 km/h (0 Bft) SO 135 3,5 C 0,0 km/h (0 Bft)
09.01.2016 20:00 4,2 C 4,1 C 95 % 1004,3 hPa 0,0 mm 0,0 km/h (0 Bft) O-SO 112 3,5 C 0,0 km/h (0 Bft)
09.01.2016 20:05 4,0 C 3,9 C 95 % 1004,3 hPa 0,0 mm 0,0 km/h (0 Bft) O-SO 112 3,3 C 0,0 km/h (0 Bft)
09.01.2016 20:10 4,0 C 3,9 C 95 % 1004,3 hPa 0,0 mm 0,0 km/h (0 Bft) O-SO 112 3,3 C 0,0 km/h (0 Bft)
09.01.2016 20:15 3,8 C 3,8 C 95 % 1004,3 hPa 0,0 mm 0,0 km/h (0 Bft) O-SO 112 3,1 C 0,0 km/h (0 Bft)
09.01.2016 20:20 3,7 C 3,7 C 95 % 1004,2 hPa 0,0 mm 0,0 km/h (0 Bft) O-SO 112 3,0 C 0,0 km/h (0 Bft)
09.01.2016 20:25 4,0 C 3,9 C 94 % 1004,2 hPa 0,0 mm 0,0 km/h (0 Bft) O-SO 112 3,1 C 0,0 km/h (0 Bft)
09.01.2016 20:30 4,0 C 3,9 C 94 % 1004,2 hPa 0,0 mm 0,0 km/h (0 Bft) O-SO 112 3,1 C 0,0 km/h (0 Bft)
09.01.2016 20:35 3,7 C 3,7 C 95 % 1004,2 hPa 0,0 mm 0,0 km/h (0 Bft) O-SO 112 3,0 C 0,0 km/h (0 Bft)
09.01.2016 20:40 3,9 C 3,8 C 95 % 1004,2 hPa 0,0 mm 0,0 km/h (0 Bft) O-SO 112 3,2 C 0,0 km/h (0 Bft)
09.01.2016 20:45 3,8 C 3,7 C 95 % 1004,2 hPa 0,0 mm 0,0 km/h (0 Bft) N-NW 337 3,1 C 0,0 km/h (0 Bft)
09.01.2016 20:50 3,6 C 3,5 C 95 % 1004,2 hPa 0,0 mm 0,0 km/h (0 Bft) NW 315 2,9 C 0,0 km/h (0 Bft)
09.01.2016 20:55 3,7 C 3,6 C 95 % 1004,2 hPa 0,0 mm 0,0 km/h (0 Bft) SO 135 3,0 C 0,0 km/h (0 Bft)
09.01.2016 21:00 3,9 C 3,7 C 95 % 1004,0 hPa 0,0 mm 0,0 km/h (0 Bft) S-SO 157 3,2 C 0,0 km/h (0 Bft)
09.01.2016 21:05 3,6 C 3,5 C 95 % 1004,0 hPa 0,0 mm 0,0 km/h (0 Bft) O-SO 112 2,9 C 0,0 km/h (0 Bft)
09.01.2016 21:10 3,4 C 3,4 C 95 % 1004,0 hPa 0,0 mm 0,3 km/h (0 Bft) SW 225 2,7 C 0,0 km/h (0 Bft)
09.01.2016 21:15 3,4 C 3,3 C 95 % 1004,0 hPa 0,0 mm 0,3 km/h (0 Bft) O-NO 67 2,7 C 0,0 km/h (0 Bft)
09.01.2016 21:20 3,3 C 3,2 C 95 % 1003,7 hPa 0,0 mm 0,0 km/h (0 Bft) SW 225 2,6 C 0,0 km/h (0 Bft)
09.01.2016 21:25 3,5 C 3,3 C 95 % 1003,7 hPa 0,0 mm 0,0 km/h (0 Bft) O-NO 67 2,8 C 0,0 km/h (0 Bft)
09.01.2016 21:30 3,2 C 3,1 C 94 % 1003,7 hPa 0,0 mm 0,0 km/h (0 Bft) O-NO 67 2,3 C 0,0 km/h (0 Bft)
09.01.2016 21:35 3,3 C 3,2 C 95 % 1003,7 hPa 0,0 mm 0,0 km/h (0 Bft) SO 135 2,6 C 0,0 km/h (0 Bft)
09.01.2016 21:40 3,2 C 3,1 C 95 % 1003,5 hPa 0,0 mm 0,0 km/h (0 Bft) O 90 2,5 C 0,0 km/h (0 Bft)
09.01.2016 21:45 3,2 C 3,1 C 95 % 1003,5 hPa 0,0 mm 0,0 km/h (0 Bft) O-SO 112 2,5 C 0,0 km/h (0 Bft)
09.01.2016 21:50 3,2 C 3,0 C 95 % 1003,5 hPa 0,0 mm 0,0 km/h (0 Bft) O-NO 67 2,5 C 0,0 km/h (0 Bft)
09.01.2016 21:51 3,1 C 3,0 C 94 % 1003,5 hPa 0,0 mm 0,0 km/h (0 Bft) O-NO 67 2,2 C 0,0 km/h (0 Bft)
09.01.2016 21:53 3,1 C 3,0 C 94 % 1003,5 hPa 0,0 mm 0,0 km/h (0 Bft) O-NO 67 2,2 C 0,0 km/h (0 Bft)
09.01.2016 21:55 3,1 C 3,0 C 94 % 1003,5 hPa 0,0 mm 0,0 km/h (0 Bft) O-NO 67 2,2 C 0,0 km/h (0 Bft)
09.01.2016 22:00 3,3 C 3,2 C 90 % 1003,5 hPa 0,0 mm 0,0 km/h (0 Bft) O-NO 67 1,8 C 0,0 km/h (0 Bft)
09.01.2016 22:05 3,0 C 2,9 C 95 % 1003,5 hPa 0,0 mm 0,0 km/h (0 Bft) O-NO 67 2,3 C 0,0 km/h (0 Bft)
09.01.2016 22:10 3,3 C 3,1 C 95 % 1003,5 hPa 0,0 mm 0,0 km/h (0 Bft) O 90 2,6 C 0,0 km/h (0 Bft)
09.01.2016 22:15 3,2 C 3,1 C 95 % 1003,5 hPa 0,0 mm 0,0 km/h (0 Bft) N-NO 22 2,5 C 0,0 km/h (0 Bft)
09.01.2016 22:20 3,2 C 3,1 C 95 % 1003,2 hPa 0,0 mm 0,0 km/h (0 Bft) NO 45 2,5 C 0,0 km/h (0 Bft)
09.01.2016 22:25 3,2 C 3,1 C 95 % 1003,2 hPa 0,0 mm 0,0 km/h (0 Bft) SO 135 2,5 C 0,0 km/h (0 Bft)
09.01.2016 22:30 3,1 C 3,0 C 95 % 1003,2 hPa 0,0 mm 0,0 km/h (0 Bft) O 90 2,4 C 0,0 km/h (0 Bft)
09.01.2016 22:35 3,1 C 3,0 C 95 % 1003,2 hPa 0,0 mm 0,0 km/h (0 Bft) O-NO 67 2,4 C 0,0 km/h (0 Bft)
09.01.2016 22:40 2,8 C 2,8 C 95 % 1003,1 hPa 0,0 mm 0,0 km/h (0 Bft) N-NO 22 2,1 C 0,0 km/h (0 Bft)
09.01.2016 22:45 3,2 C 3,0 C 95 % 1003,1 hPa 0,0 mm 0,0 km/h (0 Bft) O-SO 112 2,5 C 0,0 km/h (0 Bft)
09.01.2016 22:50 3,3 C 3,1 C 95 % 1003,1 hPa 0,0 mm 0,0 km/h (0 Bft) N-NO 22 2,6 C 0,0 km/h (0 Bft)
09.01.2016 22:55 3,2 C 3,0 C 95 % 1003,1 hPa 0,0 mm 0,0 km/h (0 Bft) O-SO 112 2,5 C 0,0 km/h (0 Bft)
09.01.2016 23:00 3,0 C 2,8 C 95 % 1003,0 hPa 0,0 mm 0,0 km/h (0 Bft) O-SO 112 2,3 C 0,0 km/h (0 Bft)
09.01.2016 23:05 3,0 C 2,8 C 95 % 1003,0 hPa 0,0 mm 0,0 km/h (0 Bft) O-NO 67 2,3 C 0,0 km/h (0 Bft)
09.01.2016 23:10 3,0 C 2,8 C 95 % 1003,0 hPa 0,0 mm 0,0 km/h (0 Bft) O-NO 67 2,3 C 0,0 km/h (0 Bft)
09.01.2016 23:15 2,6 C 2,5 C 95 % 1003,0 hPa 0,0 mm 0,0 km/h (0 Bft) N-NW 337 1,9 C 0,0 km/h (0 Bft)
09.01.2016 23:20 2,5 C 2,4 C 95 % 1003,3 hPa 0,0 mm 0,0 km/h (0 Bft) NW 315 1,8 C 0,0 km/h (0 Bft)
09.01.2016 23:25 2,6 C 2,4 C 95 % 1003,3 hPa 0,0 mm 0,0 km/h (0 Bft) W-NW 292 1,9 C 0,0 km/h (0 Bft)
09.01.2016 23:30 2,7 C 2,5 C 95 % 1003,3 hPa 0,0 mm 0,0 km/h (0 Bft) W 270 2,0 C 0,0 km/h (0 Bft)
09.01.2016 23:35 2,4 C 2,2 C 95 % 1003,3 hPa 0,0 mm 0,0 km/h (0 Bft) W-NW 292 1,7 C 0,0 km/h (0 Bft)
09.01.2016 23:40 2,4 C 2,2 C 95 % 1003,3 hPa 0,0 mm 0,5 km/h (0 Bft) W-NW 292 1,7 C 4,7 km/h (1 Bft)
09.01.2016 23:45 2,4 C 2,2 C 95 % 1003,3 hPa 0,0 mm 2,1 km/h (1 Bft) W 270 1,7 C 0,0 km/h (0 Bft)
09.01.2016 23:50 2,4 C 2,2 C 95 % 1003,3 hPa 0,0 mm 2,6 km/h (1 Bft) SW 225 1,7 C 5,2 km/h (1 Bft)
09.01.2016 23:55 2,7 C 2,5 C 95 % 1003,3 hPa 0,0 mm 3,1 km/h (1 Bft) SW 225 2,0 C 8,5 km/h (2 Bft)
_ Min-Zeit 00:15 23:50 02:50 23:15 - 23:35 - - 01:05 23:45
Minimum _ 2,3 C 2,2 C 88 % 1003,0 hPa - 0,0 km/h (0 Bft) - - 1,0 C 0,0 km/h (0 Bft)
_ Max-Zeit 13:15 13:25 23:55 00:50 14:45 19:30 - - 13:15 04:10
Maximum _ 5,7 C 5,8 C 95 % 1005,5 hPa 0,7 mm 6,2 km/h
O-SO (2 Bft)
- - 4,8 C 17,9 km/h
SO (3 Bft)
Durchschnitt _ 4,1 C 4,2 C 93 % 1004,6 hPa #8,9 mm 0,6 km/h (0 Bft) W - 3,2 C 1,0 km/h (0 Bft)